sensor_id;sensor_type;location;lat;lon;timestamp;temperature;humidity
43671;DHT22;29267;50.906;7.248;2024-02-15T00:00:36;10.70;99.90
43671;DHT22;29267;50.906;7.248;2024-02-15T00:03:03;10.70;99.90
43671;DHT22;29267;50.906;7.248;2024-02-15T00:05:34;10.70;99.90
43671;DHT22;29267;50.906;7.248;2024-02-15T00:08:02;10.70;99.90
43671;DHT22;29267;50.906;7.248;2024-02-15T00:10:27;10.70;99.90
43671;DHT22;29267;50.906;7.248;2024-02-15T00:12:53;10.70;99.90
43671;DHT22;29267;50.906;7.248;2024-02-15T00:15:18;10.70;99.90
43671;DHT22;29267;50.906;7.248;2024-02-15T00:17:45;10.70;99.90
43671;DHT22;29267;50.906;7.248;2024-02-15T00:20:12;10.70;99.90
43671;DHT22;29267;50.906;7.248;2024-02-15T00:22:38;10.70;99.90
43671;DHT22;29267;50.906;7.248;2024-02-15T00:25:06;10.70;99.90
43671;DHT22;29267;50.906;7.248;2024-02-15T00:27:35;10.70;99.90
43671;DHT22;29267;50.906;7.248;2024-02-15T00:30:01;10.70;99.90
43671;DHT22;29267;50.906;7.248;2024-02-15T00:32:27;10.70;99.90
43671;DHT22;29267;50.906;7.248;2024-02-15T00:34:52;10.70;99.90
43671;DHT22;29267;50.906;7.248;2024-02-15T00:37:19;10.70;99.90
43671;DHT22;29267;50.906;7.248;2024-02-15T00:39:44;10.70;99.90
43671;DHT22;29267;50.906;7.248;2024-02-15T00:42:10;10.70;99.90
43671;DHT22;29267;50.906;7.248;2024-02-15T00:44:36;10.70;99.90
43671;DHT22;29267;50.906;7.248;2024-02-15T00:47:02;10.70;99.90
43671;DHT22;29267;50.906;7.248;2024-02-15T00:49:28;10.70;99.90
43671;DHT22;29267;50.906;7.248;2024-02-15T00:51:54;10.70;99.90
43671;DHT22;29267;50.906;7.248;2024-02-15T00:54:19;10.70;99.90
43671;DHT22;29267;50.906;7.248;2024-02-15T00:56:45;10.70;99.90
43671;DHT22;29267;50.906;7.248;2024-02-15T00:59:10;10.70;99.90
43671;DHT22;29267;50.906;7.248;2024-02-15T01:01:36;10.70;99.90
43671;DHT22;29267;50.906;7.248;2024-02-15T01:04:06;10.70;99.90
43671;DHT22;29267;50.906;7.248;2024-02-15T01:06:32;10.70;99.90
43671;DHT22;29267;50.906;7.248;2024-02-15T01:08:58;10.70;99.90
43671;DHT22;29267;50.906;7.248;2024-02-15T01:11:26;10.70;99.90
43671;DHT22;29267;50.906;7.248;2024-02-15T01:13:54;10.70;99.90
43671;DHT22;29267;50.906;7.248;2024-02-15T01:16:19;10.70;99.90
43671;DHT22;29267;50.906;7.248;2024-02-15T01:18:47;10.70;99.90
43671;DHT22;29267;50.906;7.248;2024-02-15T01:21:12;10.70;99.90
43671;DHT22;29267;50.906;7.248;2024-02-15T01:23:39;10.70;99.90
43671;DHT22;29267;50.906;7.248;2024-02-15T01:26:04;10.70;99.90
43671;DHT22;29267;50.906;7.248;2024-02-15T01:28:30;10.70;99.90
43671;DHT22;29267;50.906;7.248;2024-02-15T01:30:56;10.70;99.90
43671;DHT22;29267;50.906;7.248;2024-02-15T01:33:22;10.70;99.90
43671;DHT22;29267;50.906;7.248;2024-02-15T01:35:47;10.70;99.90
43671;DHT22;29267;50.906;7.248;2024-02-15T01:38:14;10.70;99.90
43671;DHT22;29267;50.906;7.248;2024-02-15T01:40:40;10.70;99.90
43671;DHT22;29267;50.906;7.248;2024-02-15T01:43:06;10.70;99.90
43671;DHT22;29267;50.906;7.248;2024-02-15T01:45:31;10.70;99.90
43671;DHT22;29267;50.906;7.248;2024-02-15T01:47:57;10.70;99.90
43671;DHT22;29267;50.906;7.248;2024-02-15T01:50:24;10.70;99.90
43671;DHT22;29267;50.906;7.248;2024-02-15T01:52:53;10.70;99.90
43671;DHT22;29267;50.906;7.248;2024-02-15T01:55:20;10.70;99.90
43671;DHT22;29267;50.906;7.248;2024-02-15T01:57:47;10.70;99.90
43671;DHT22;29267;50.906;7.248;2024-02-15T02:00:17;10.70;99.90
43671;DHT22;29267;50.906;7.248;2024-02-15T02:02:44;10.70;99.90
43671;DHT22;29267;50.906;7.248;2024-02-15T02:05:10;10.70;99.90
43671;DHT22;29267;50.906;7.248;2024-02-15T02:07:37;10.70;99.90
43671;DHT22;29267;50.906;7.248;2024-02-15T02:10:03;10.70;99.90
43671;DHT22;29267;50.906;7.248;2024-02-15T02:12:29;10.70;99.90
43671;DHT22;29267;50.906;7.248;2024-02-15T02:14:55;10.60;99.90
43671;DHT22;29267;50.906;7.248;2024-02-15T02:17:21;10.60;99.90
43671;DHT22;29267;50.906;7.248;2024-02-15T02:19:47;10.60;99.90
43671;DHT22;29267;50.906;7.248;2024-02-15T02:22:15;10.60;99.90
43671;DHT22;29267;50.906;7.248;2024-02-15T02:24:55;10.60;99.90
43671;DHT22;29267;50.906;7.248;2024-02-15T02:27:21;10.60;99.90
43671;DHT22;29267;50.906;7.248;2024-02-15T02:29:47;10.50;99.90
43671;DHT22;29267;50.906;7.248;2024-02-15T02:32:13;10.50;99.90
43671;DHT22;29267;50.906;7.248;2024-02-15T02:34:38;10.50;99.90
43671;DHT22;29267;50.906;7.248;2024-02-15T02:37:06;10.50;99.90
43671;DHT22;29267;50.906;7.248;2024-02-15T02:39:33;10.40;99.90
43671;DHT22;29267;50.906;7.248;2024-02-15T02:41:59;10.40;99.90
43671;DHT22;29267;50.906;7.248;2024-02-15T02:44:25;10.40;99.90
43671;DHT22;29267;50.906;7.248;2024-02-15T02:46:51;10.30;99.90
43671;DHT22;29267;50.906;7.248;2024-02-15T02:49:16;10.30;99.90
43671;DHT22;29267;50.906;7.248;2024-02-15T02:51:42;10.30;99.90
43671;DHT22;29267;50.906;7.248;2024-02-15T02:54:08;10.30;99.90
43671;DHT22;29267;50.906;7.248;2024-02-15T02:56:34;10.30;99.90
43671;DHT22;29267;50.906;7.248;2024-02-15T02:58:59;10.30;99.90
43671;DHT22;29267;50.906;7.248;2024-02-15T03:01:25;10.30;99.90
43671;DHT22;29267;50.906;7.248;2024-02-15T03:03:52;10.30;99.90
43671;DHT22;29267;50.906;7.248;2024-02-15T03:06:20;10.20;99.90
43671;DHT22;29267;50.906;7.248;2024-02-15T03:08:47;10.30;99.90
43671;DHT22;29267;50.906;7.248;2024-02-15T03:11:12;10.30;99.90
43671;DHT22;29267;50.906;7.248;2024-02-15T03:13:39;10.30;99.90
43671;DHT22;29267;50.906;7.248;2024-02-15T03:16:05;10.30;99.90
43671;DHT22;29267;50.906;7.248;2024-02-15T03:18:31;10.30;99.90
43671;DHT22;29267;50.906;7.248;2024-02-15T03:20:58;10.30;99.90
43671;DHT22;29267;50.906;7.248;2024-02-15T03:23:24;10.40;99.90
43671;DHT22;29267;50.906;7.248;2024-02-15T03:25:49;10.40;99.90
43671;DHT22;29267;50.906;7.248;2024-02-15T03:28:15;10.40;99.90
43671;DHT22;29267;50.906;7.248;2024-02-15T03:30:41;10.40;99.90
43671;DHT22;29267;50.906;7.248;2024-02-15T03:33:08;10.40;99.90
43671;DHT22;29267;50.906;7.248;2024-02-15T03:35:34;10.40;99.90
43671;DHT22;29267;50.906;7.248;2024-02-15T03:38:00;10.40;99.90
43671;DHT22;29267;50.906;7.248;2024-02-15T03:40:26;10.50;99.90
43671;DHT22;29267;50.906;7.248;2024-02-15T03:42:53;10.40;99.90
43671;DHT22;29267;50.906;7.248;2024-02-15T03:45:19;10.50;99.90
43671;DHT22;29267;50.906;7.248;2024-02-15T03:47:44;10.50;99.90
43671;DHT22;29267;50.906;7.248;2024-02-15T03:50:11;10.50;99.90
43671;DHT22;29267;50.906;7.248;2024-02-15T03:52:40;10.50;99.90
43671;DHT22;29267;50.906;7.248;2024-02-15T03:55:06;10.50;99.90
43671;DHT22;29267;50.906;7.248;2024-02-15T03:57:39;10.50;99.90
43671;DHT22;29267;50.906;7.248;2024-02-15T04:00:12;10.50;99.90
43671;DHT22;29267;50.906;7.248;2024-02-15T04:02:39;10.50;99.90
43671;DHT22;29267;50.906;7.248;2024-02-15T04:05:07;10.50;99.90
43671;DHT22;29267;50.906;7.248;2024-02-15T04:07:34;10.50;99.90
43671;DHT22;29267;50.906;7.248;2024-02-15T04:10:00;10.50;99.90
43671;DHT22;29267;50.906;7.248;2024-02-15T04:12:26;10.50;99.90
43671;DHT22;29267;50.906;7.248;2024-02-15T04:14:52;10.50;99.90
43671;DHT22;29267;50.906;7.248;2024-02-15T04:17:19;10.50;99.90
43671;DHT22;29267;50.906;7.248;2024-02-15T04:19:47;10.50;99.90
43671;DHT22;29267;50.906;7.248;2024-02-15T04:22:13;10.50;99.90
43671;DHT22;29267;50.906;7.248;2024-02-15T04:24:44;10.50;99.90
43671;DHT22;29267;50.906;7.248;2024-02-15T04:27:10;10.50;99.90
43671;DHT22;29267;50.906;7.248;2024-02-15T04:29:37;10.50;99.90
43671;DHT22;29267;50.906;7.248;2024-02-15T04:32:05;10.50;99.90
43671;DHT22;29267;50.906;7.248;2024-02-15T04:34:34;10.50;99.90
43671;DHT22;29267;50.906;7.248;2024-02-15T04:37:00;10.50;99.90
43671;DHT22;29267;50.906;7.248;2024-02-15T04:39:26;10.40;99.90
43671;DHT22;29267;50.906;7.248;2024-02-15T04:41:55;10.40;99.90
43671;DHT22;29267;50.906;7.248;2024-02-15T04:44:21;10.40;99.90
43671;DHT22;29267;50.906;7.248;2024-02-15T04:46:48;10.40;99.90
43671;DHT22;29267;50.906;7.248;2024-02-15T04:49:15;10.40;99.90
43671;DHT22;29267;50.906;7.248;2024-02-15T04:51:40;10.40;99.90
43671;DHT22;29267;50.906;7.248;2024-02-15T04:54:07;10.40;99.90
43671;DHT22;29267;50.906;7.248;2024-02-15T04:56:34;10.40;99.90
43671;DHT22;29267;50.906;7.248;2024-02-15T04:59:01;10.40;99.90
43671;DHT22;29267;50.906;7.248;2024-02-15T05:01:27;10.50;99.90
43671;DHT22;29267;50.906;7.248;2024-02-15T05:03:54;10.50;99.90
43671;DHT22;29267;50.906;7.248;2024-02-15T05:06:21;10.50;99.90
43671;DHT22;29267;50.906;7.248;2024-02-15T05:08:46;10.50;99.90
43671;DHT22;29267;50.906;7.248;2024-02-15T05:11:13;10.50;99.90
43671;DHT22;29267;50.906;7.248;2024-02-15T05:13:43;10.50;99.90
43671;DHT22;29267;50.906;7.248;2024-02-15T05:16:10;10.50;99.90
43671;DHT22;29267;50.906;7.248;2024-02-15T05:18:36;10.50;99.90
43671;DHT22;29267;50.906;7.248;2024-02-15T05:21:04;10.50;99.90
43671;DHT22;29267;50.906;7.248;2024-02-15T05:23:30;10.50;99.90
43671;DHT22;29267;50.906;7.248;2024-02-15T05:25:55;10.50;99.90
43671;DHT22;29267;50.906;7.248;2024-02-15T05:28:22;10.50;99.90
43671;DHT22;29267;50.906;7.248;2024-02-15T05:31:13;10.50;99.90
43671;DHT22;29267;50.906;7.248;2024-02-15T05:33:42;10.50;99.90
43671;DHT22;29267;50.906;7.248;2024-02-15T05:36:11;10.50;99.90
43671;DHT22;29267;50.906;7.248;2024-02-15T05:38:36;10.50;99.90
43671;DHT22;29267;50.906;7.248;2024-02-15T05:41:02;10.50;99.90
43671;DHT22;29267;50.906;7.248;2024-02-15T05:43:28;10.50;99.90
43671;DHT22;29267;50.906;7.248;2024-02-15T05:45:54;10.50;99.90
43671;DHT22;29267;50.906;7.248;2024-02-15T05:48:20;10.50;99.90
43671;DHT22;29267;50.906;7.248;2024-02-15T05:50:46;10.50;99.90
43671;DHT22;29267;50.906;7.248;2024-02-15T05:53:12;10.50;99.90
43671;DHT22;29267;50.906;7.248;2024-02-15T05:55:38;10.50;99.90
43671;DHT22;29267;50.906;7.248;2024-02-15T05:58:06;10.50;99.90
43671;DHT22;29267;50.906;7.248;2024-02-15T06:00:34;10.50;99.90
43671;DHT22;29267;50.906;7.248;2024-02-15T06:03:01;10.50;99.90
43671;DHT22;29267;50.906;7.248;2024-02-15T06:05:27;10.60;99.90
43671;DHT22;29267;50.906;7.248;2024-02-15T06:07:53;10.60;99.90
43671;DHT22;29267;50.906;7.248;2024-02-15T06:10:19;10.60;99.90
43671;DHT22;29267;50.906;7.248;2024-02-15T06:12:44;10.60;99.90
43671;DHT22;29267;50.906;7.248;2024-02-15T06:15:10;10.60;99.90
43671;DHT22;29267;50.906;7.248;2024-02-15T06:17:46;10.50;99.90
43671;DHT22;29267;50.906;7.248;2024-02-15T06:20:15;10.60;99.90
43671;DHT22;29267;50.906;7.248;2024-02-15T06:22:43;10.50;99.90
43671;DHT22;29267;50.906;7.248;2024-02-15T06:25:09;10.50;99.90
43671;DHT22;29267;50.906;7.248;2024-02-15T06:27:36;10.50;99.90
43671;DHT22;29267;50.906;7.248;2024-02-15T06:30:07;10.50;99.90
43671;DHT22;29267;50.906;7.248;2024-02-15T06:32:51;10.50;99.90
43671;DHT22;29267;50.906;7.248;2024-02-15T06:35:35;10.50;99.90
43671;DHT22;29267;50.906;7.248;2024-02-15T06:38:20;10.50;99.90
43671;DHT22;29267;50.906;7.248;2024-02-15T06:41:04;10.50;99.90
43671;DHT22;29267;50.906;7.248;2024-02-15T06:43:29;10.50;99.90
43671;DHT22;29267;50.906;7.248;2024-02-15T06:45:55;10.50;99.90
43671;DHT22;29267;50.906;7.248;2024-02-15T06:48:21;10.50;99.90
43671;DHT22;29267;50.906;7.248;2024-02-15T06:50:49;10.50;99.90
43671;DHT22;29267;50.906;7.248;2024-02-15T06:53:15;10.50;99.90
43671;DHT22;29267;50.906;7.248;2024-02-15T06:55:40;10.50;99.90
43671;DHT22;29267;50.906;7.248;2024-02-15T06:58:06;10.50;99.90
43671;DHT22;29267;50.906;7.248;2024-02-15T07:00:31;10.50;99.90
43671;DHT22;29267;50.906;7.248;2024-02-15T07:02:57;10.60;99.90
43671;DHT22;29267;50.906;7.248;2024-02-15T07:05:23;10.60;99.90
43671;DHT22;29267;50.906;7.248;2024-02-15T07:07:49;10.60;99.90
43671;DHT22;29267;50.906;7.248;2024-02-15T07:10:15;10.70;99.90
43671;DHT22;29267;50.906;7.248;2024-02-15T07:12:42;10.70;99.90
43671;DHT22;29267;50.906;7.248;2024-02-15T07:15:09;10.70;99.90
43671;DHT22;29267;50.906;7.248;2024-02-15T07:17:35;10.70;99.90
43671;DHT22;29267;50.906;7.248;2024-02-15T07:20:03;10.70;99.90
43671;DHT22;29267;50.906;7.248;2024-02-15T07:22:30;10.70;99.90
43671;DHT22;29267;50.906;7.248;2024-02-15T07:24:57;10.70;99.90
43671;DHT22;29267;50.906;7.248;2024-02-15T07:27:22;10.70;99.90
43671;DHT22;29267;50.906;7.248;2024-02-15T07:29:51;10.80;99.90
43671;DHT22;29267;50.906;7.248;2024-02-15T07:32:17;10.80;99.90
43671;DHT22;29267;50.906;7.248;2024-02-15T07:34:43;10.80;99.90
43671;DHT22;29267;50.906;7.248;2024-02-15T07:37:13;10.80;99.90
43671;DHT22;29267;50.906;7.248;2024-02-15T07:39:41;10.80;99.90
43671;DHT22;29267;50.906;7.248;2024-02-15T07:42:06;10.90;99.90
43671;DHT22;29267;50.906;7.248;2024-02-15T07:44:34;10.90;99.90
43671;DHT22;29267;50.906;7.248;2024-02-15T07:47:02;10.90;99.90
43671;DHT22;29267;50.906;7.248;2024-02-15T07:49:28;10.90;99.90
43671;DHT22;29267;50.906;7.248;2024-02-15T07:51:53;10.90;99.90
43671;DHT22;29267;50.906;7.248;2024-02-15T07:54:20;11.00;99.90
43671;DHT22;29267;50.906;7.248;2024-02-15T07:56:49;11.10;99.90
43671;DHT22;29267;50.906;7.248;2024-02-15T07:59:15;11.10;99.90
43671;DHT22;29267;50.906;7.248;2024-02-15T08:01:47;11.10;99.90
43671;DHT22;29267;50.906;7.248;2024-02-15T08:04:15;11.10;99.90
43671;DHT22;29267;50.906;7.248;2024-02-15T08:06:41;11.20;99.90
43671;DHT22;29267;50.906;7.248;2024-02-15T08:09:07;11.30;99.90
43671;DHT22;29267;50.906;7.248;2024-02-15T08:11:34;11.30;99.90
43671;DHT22;29267;50.906;7.248;2024-02-15T08:14:00;11.40;99.90
43671;DHT22;29267;50.906;7.248;2024-02-15T08:16:26;11.40;99.90
43671;DHT22;29267;50.906;7.248;2024-02-15T08:18:54;11.50;99.90
43671;DHT22;29267;50.906;7.248;2024-02-15T08:21:27;11.50;99.90
43671;DHT22;29267;50.906;7.248;2024-02-15T08:23:59;11.50;99.90
43671;DHT22;29267;50.906;7.248;2024-02-15T08:26:25;11.50;99.90
43671;DHT22;29267;50.906;7.248;2024-02-15T08:28:50;11.50;99.90
43671;DHT22;29267;50.906;7.248;2024-02-15T08:31:16;11.50;99.90
43671;DHT22;29267;50.906;7.248;2024-02-15T08:33:42;11.50;99.90
43671;DHT22;29267;50.906;7.248;2024-02-15T08:36:11;11.50;99.90
43671;DHT22;29267;50.906;7.248;2024-02-15T08:38:39;11.50;99.90
43671;DHT22;29267;50.906;7.248;2024-02-15T08:41:04;11.50;99.90
43671;DHT22;29267;50.906;7.248;2024-02-15T08:43:32;11.60;99.90
43671;DHT22;29267;50.906;7.248;2024-02-15T08:45:58;11.60;99.90
43671;DHT22;29267;50.906;7.248;2024-02-15T08:48:24;11.60;99.90
43671;DHT22;29267;50.906;7.248;2024-02-15T08:50:51;11.60;99.90
43671;DHT22;29267;50.906;7.248;2024-02-15T08:53:17;11.60;99.90
43671;DHT22;29267;50.906;7.248;2024-02-15T08:55:45;11.80;99.90
43671;DHT22;29267;50.906;7.248;2024-02-15T08:58:11;11.80;99.90
43671;DHT22;29267;50.906;7.248;2024-02-15T09:00:37;11.80;99.90
43671;DHT22;29267;50.906;7.248;2024-02-15T09:03:06;11.80;99.90
43671;DHT22;29267;50.906;7.248;2024-02-15T09:05:32;11.70;99.90
43671;DHT22;29267;50.906;7.248;2024-02-15T09:07:58;11.70;99.90
43671;DHT22;29267;50.906;7.248;2024-02-15T09:10:23;11.80;99.90
43671;DHT22;29267;50.906;7.248;2024-02-15T09:12:49;11.80;99.90
43671;DHT22;29267;50.906;7.248;2024-02-15T09:15:18;11.80;99.90
43671;DHT22;29267;50.906;7.248;2024-02-15T09:17:44;11.90;99.90
43671;DHT22;29267;50.906;7.248;2024-02-15T09:20:12;11.80;99.90
43671;DHT22;29267;50.906;7.248;2024-02-15T09:22:51;11.90;99.90
43671;DHT22;29267;50.906;7.248;2024-02-15T09:25:17;11.90;99.90
43671;DHT22;29267;50.906;7.248;2024-02-15T09:27:43;11.90;99.90
43671;DHT22;29267;50.906;7.248;2024-02-15T09:30:10;12.00;99.90
43671;DHT22;29267;50.906;7.248;2024-02-15T09:32:37;12.10;99.90
43671;DHT22;29267;50.906;7.248;2024-02-15T09:35:03;12.20;99.90
43671;DHT22;29267;50.906;7.248;2024-02-15T09:37:36;12.30;99.90
43671;DHT22;29267;50.906;7.248;2024-02-15T09:40:07;12.50;99.90
43671;DHT22;29267;50.906;7.248;2024-02-15T09:42:35;12.60;99.90
43671;DHT22;29267;50.906;7.248;2024-02-15T09:45:02;12.80;99.90
43671;DHT22;29267;50.906;7.248;2024-02-15T09:47:36;13.00;99.90
43671;DHT22;29267;50.906;7.248;2024-02-15T09:50:12;13.30;99.90
43671;DHT22;29267;50.906;7.248;2024-02-15T09:52:50;13.60;99.90
43671;DHT22;29267;50.906;7.248;2024-02-15T09:55:17;13.90;99.90
43671;DHT22;29267;50.906;7.248;2024-02-15T09:57:47;13.90;99.90
43671;DHT22;29267;50.906;7.248;2024-02-15T10:00:13;14.00;99.90
43671;DHT22;29267;50.906;7.248;2024-02-15T10:02:41;14.00;99.90
43671;DHT22;29267;50.906;7.248;2024-02-15T10:05:10;13.90;99.90
43671;DHT22;29267;50.906;7.248;2024-02-15T10:07:42;13.80;99.90
43671;DHT22;29267;50.906;7.248;2024-02-15T10:10:18;13.90;99.90
43671;DHT22;29267;50.906;7.248;2024-02-15T10:12:49;14.00;99.90
43671;DHT22;29267;50.906;7.248;2024-02-15T10:15:32;14.10;99.90
43671;DHT22;29267;50.906;7.248;2024-02-15T10:18:00;14.10;99.90
43671;DHT22;29267;50.906;7.248;2024-02-15T10:20:26;14.20;99.90
43671;DHT22;29267;50.906;7.248;2024-02-15T10:23:14;14.20;99.90
43671;DHT22;29267;50.906;7.248;2024-02-15T10:25:39;14.30;99.90
43671;DHT22;29267;50.906;7.248;2024-02-15T10:28:10;14.40;99.90
43671;DHT22;29267;50.906;7.248;2024-02-15T10:30:38;14.30;99.90
43671;DHT22;29267;50.906;7.248;2024-02-15T10:33:04;14.30;99.90
43671;DHT22;29267;50.906;7.248;2024-02-15T10:35:31;14.20;99.90
43671;DHT22;29267;50.906;7.248;2024-02-15T10:38:10;14.30;99.90
43671;DHT22;29267;50.906;7.248;2024-02-15T10:40:39;14.30;99.90
43671;DHT22;29267;50.906;7.248;2024-02-15T10:43:09;14.40;99.90
43671;DHT22;29267;50.906;7.248;2024-02-15T10:45:38;14.40;99.90
43671;DHT22;29267;50.906;7.248;2024-02-15T10:48:11;14.40;99.90
43671;DHT22;29267;50.906;7.248;2024-02-15T10:50:45;14.50;99.90
43671;DHT22;29267;50.906;7.248;2024-02-15T10:53:25;14.50;99.90
43671;DHT22;29267;50.906;7.248;2024-02-15T10:58:32;14.50;99.90
43671;DHT22;29267;50.906;7.248;2024-02-15T11:01:02;14.50;99.90
43671;DHT22;29267;50.906;7.248;2024-02-15T11:03:35;14.60;99.90
43671;DHT22;29267;50.906;7.248;2024-02-15T11:06:02;14.60;99.90
43671;DHT22;29267;50.906;7.248;2024-02-15T11:08:32;14.70;99.90
43671;DHT22;29267;50.906;7.248;2024-02-15T11:10:58;14.90;99.90
43671;DHT22;29267;50.906;7.248;2024-02-15T11:13:24;15.00;99.90
43671;DHT22;29267;50.906;7.248;2024-02-15T11:15:50;15.10;99.90
43671;DHT22;29267;50.906;7.248;2024-02-15T11:21:10;15.50;99.90
43671;DHT22;29267;50.906;7.248;2024-02-15T11:23:35;15.60;99.90
43671;DHT22;29267;50.906;7.248;2024-02-15T11:26:01;15.70;99.90
43671;DHT22;29267;50.906;7.248;2024-02-15T11:30:56;15.70;99.90
43671;DHT22;29267;50.906;7.248;2024-02-15T11:33:34;15.80;99.90
43671;DHT22;29267;50.906;7.248;2024-02-15T11:36:10;15.80;99.90
43671;DHT22;29267;50.906;7.248;2024-02-15T11:38:37;15.90;99.90
43671;DHT22;29267;50.906;7.248;2024-02-15T11:41:06;16.00;99.90
43671;DHT22;29267;50.906;7.248;2024-02-15T11:46:20;16.10;99.90
43671;DHT22;29267;50.906;7.248;2024-02-15T11:48:49;16.00;99.90
43671;DHT22;29267;50.906;7.248;2024-02-15T11:51:36;16.10;99.90
43671;DHT22;29267;50.906;7.248;2024-02-15T11:54:11;16.20;99.90
43671;DHT22;29267;50.906;7.248;2024-02-15T11:56:52;16.20;99.90
43671;DHT22;29267;50.906;7.248;2024-02-15T11:59:44;16.20;99.90
43671;DHT22;29267;50.906;7.248;2024-02-15T12:02:38;16.20;99.90
43671;DHT22;29267;50.906;7.248;2024-02-15T12:05:22;16.20;99.90
43671;DHT22;29267;50.906;7.248;2024-02-15T12:08:07;16.10;99.90
43671;DHT22;29267;50.906;7.248;2024-02-15T12:11:00;16.20;99.90
43671;DHT22;29267;50.906;7.248;2024-02-15T12:13:50;16.10;99.90
43671;DHT22;29267;50.906;7.248;2024-02-15T12:16:35;16.00;99.90
43671;DHT22;29267;50.906;7.248;2024-02-15T12:19:19;16.00;99.90
43671;DHT22;29267;50.906;7.248;2024-02-15T12:21:47;16.00;99.90
43671;DHT22;29267;50.906;7.248;2024-02-15T12:24:14;16.00;99.90
43671;DHT22;29267;50.906;7.248;2024-02-15T12:26:41;16.00;99.90
43671;DHT22;29267;50.906;7.248;2024-02-15T12:29:07;16.10;99.90
43671;DHT22;29267;50.906;7.248;2024-02-15T12:31:36;16.10;99.90
43671;DHT22;29267;50.906;7.248;2024-02-15T12:34:04;16.00;99.90
43671;DHT22;29267;50.906;7.248;2024-02-15T12:36:35;16.10;99.90
43671;DHT22;29267;50.906;7.248;2024-02-15T12:39:06;16.10;99.90
43671;DHT22;29267;50.906;7.248;2024-02-15T12:41:41;16.00;99.90
43671;DHT22;29267;50.906;7.248;2024-02-15T12:44:07;16.00;99.90
43671;DHT22;29267;50.906;7.248;2024-02-15T12:46:34;16.00;99.90
43671;DHT22;29267;50.906;7.248;2024-02-15T12:51:50;16.10;99.90
43671;DHT22;29267;50.906;7.248;2024-02-15T12:54:22;16.10;99.90
43671;DHT22;29267;50.906;7.248;2024-02-15T12:56:48;16.30;99.90
43671;DHT22;29267;50.906;7.248;2024-02-15T12:59:14;16.50;99.90
43671;DHT22;29267;50.906;7.248;2024-02-15T13:01:40;16.50;99.90
43671;DHT22;29267;50.906;7.248;2024-02-15T13:04:06;16.70;99.90
43671;DHT22;29267;50.906;7.248;2024-02-15T13:06:33;16.70;99.90
43671;DHT22;29267;50.906;7.248;2024-02-15T13:09:01;16.70;99.90
43671;DHT22;29267;50.906;7.248;2024-02-15T13:11:29;16.70;99.90
43671;DHT22;29267;50.906;7.248;2024-02-15T13:13:54;16.60;99.90
43671;DHT22;29267;50.906;7.248;2024-02-15T13:16:20;16.70;99.90
43671;DHT22;29267;50.906;7.248;2024-02-15T13:18:49;16.70;99.90
43671;DHT22;29267;50.906;7.248;2024-02-15T13:21:14;16.70;99.90
43671;DHT22;29267;50.906;7.248;2024-02-15T13:23:40;16.60;99.90
43671;DHT22;29267;50.906;7.248;2024-02-15T13:26:05;16.60;99.90
43671;DHT22;29267;50.906;7.248;2024-02-15T13:28:33;16.70;99.90
43671;DHT22;29267;50.906;7.248;2024-02-15T13:30:59;16.70;99.90
43671;DHT22;29267;50.906;7.248;2024-02-15T13:33:24;16.70;99.90
43671;DHT22;29267;50.906;7.248;2024-02-15T13:35:52;16.60;99.90
43671;DHT22;29267;50.906;7.248;2024-02-15T13:38:18;16.70;99.90
43671;DHT22;29267;50.906;7.248;2024-02-15T13:40:49;16.60;99.90
43671;DHT22;29267;50.906;7.248;2024-02-15T13:43:16;16.60;99.90
43671;DHT22;29267;50.906;7.248;2024-02-15T13:45:43;16.50;99.90
43671;DHT22;29267;50.906;7.248;2024-02-15T13:48:10;16.50;99.90
43671;DHT22;29267;50.906;7.248;2024-02-15T13:50:40;16.40;99.90
43671;DHT22;29267;50.906;7.248;2024-02-15T13:53:06;16.40;99.90
43671;DHT22;29267;50.906;7.248;2024-02-15T13:55:33;16.40;99.90
43671;DHT22;29267;50.906;7.248;2024-02-15T13:57:59;16.20;99.90
43671;DHT22;29267;50.906;7.248;2024-02-15T14:00:26;16.20;99.90
43671;DHT22;29267;50.906;7.248;2024-02-15T14:03:02;16.20;99.90
43671;DHT22;29267;50.906;7.248;2024-02-15T14:05:29;16.20;99.90
43671;DHT22;29267;50.906;7.248;2024-02-15T14:07:57;16.10;99.90
43671;DHT22;29267;50.906;7.248;2024-02-15T14:10:23;16.00;99.90
43671;DHT22;29267;50.906;7.248;2024-02-15T14:12:50;15.90;99.90
43671;DHT22;29267;50.906;7.248;2024-02-15T14:15:18;16.00;99.90
43671;DHT22;29267;50.906;7.248;2024-02-15T14:17:44;15.90;99.90
43671;DHT22;29267;50.906;7.248;2024-02-15T14:20:10;16.00;99.90
43671;DHT22;29267;50.906;7.248;2024-02-15T14:22:45;16.00;99.90
43671;DHT22;29267;50.906;7.248;2024-02-15T14:25:11;16.00;99.90
43671;DHT22;29267;50.906;7.248;2024-02-15T14:27:40;16.10;99.90
43671;DHT22;29267;50.906;7.248;2024-02-15T14:30:07;16.10;99.90
43671;DHT22;29267;50.906;7.248;2024-02-15T14:32:51;16.00;99.90
43671;DHT22;29267;50.906;7.248;2024-02-15T14:35:26;15.90;99.90
43671;DHT22;29267;50.906;7.248;2024-02-15T14:37:54;15.90;99.90
43671;DHT22;29267;50.906;7.248;2024-02-15T14:40:22;15.90;99.90
43671;DHT22;29267;50.906;7.248;2024-02-15T14:42:48;15.80;99.90
43671;DHT22;29267;50.906;7.248;2024-02-15T14:45:14;15.80;99.90
43671;DHT22;29267;50.906;7.248;2024-02-15T14:47:39;15.80;99.90
43671;DHT22;29267;50.906;7.248;2024-02-15T14:50:08;15.80;99.90
43671;DHT22;29267;50.906;7.248;2024-02-15T14:52:37;15.70;99.90
43671;DHT22;29267;50.906;7.248;2024-02-15T14:55:05;15.60;99.90
43671;DHT22;29267;50.906;7.248;2024-02-15T14:57:36;15.60;99.90
43671;DHT22;29267;50.906;7.248;2024-02-15T15:00:05;15.60;99.90
43671;DHT22;29267;50.906;7.248;2024-02-15T15:02:36;15.60;99.90
43671;DHT22;29267;50.906;7.248;2024-02-15T15:05:02;15.50;99.90
43671;DHT22;29267;50.906;7.248;2024-02-15T15:07:47;15.50;99.90
43671;DHT22;29267;50.906;7.248;2024-02-15T15:10:31;15.40;99.90
43671;DHT22;29267;50.906;7.248;2024-02-15T15:13:15;15.30;99.90
43671;DHT22;29267;50.906;7.248;2024-02-15T15:15:41;15.30;99.90
43671;DHT22;29267;50.906;7.248;2024-02-15T15:18:07;15.30;99.90
43671;DHT22;29267;50.906;7.248;2024-02-15T15:20:34;15.30;99.90
43671;DHT22;29267;50.906;7.248;2024-02-15T15:23:00;15.20;99.90
43671;DHT22;29267;50.906;7.248;2024-02-15T15:25:26;15.10;99.90
43671;DHT22;29267;50.906;7.248;2024-02-15T15:27:54;15.00;99.90
43671;DHT22;29267;50.906;7.248;2024-02-15T15:30:20;15.00;99.90
43671;DHT22;29267;50.906;7.248;2024-02-15T15:32:46;14.90;99.90
43671;DHT22;29267;50.906;7.248;2024-02-15T15:35:12;14.90;99.90
43671;DHT22;29267;50.906;7.248;2024-02-15T15:37:38;14.90;99.90
43671;DHT22;29267;50.906;7.248;2024-02-15T15:40:05;14.80;99.90
43671;DHT22;29267;50.906;7.248;2024-02-15T15:42:34;14.80;99.90
43671;DHT22;29267;50.906;7.248;2024-02-15T15:45:01;14.80;99.90
43671;DHT22;29267;50.906;7.248;2024-02-15T15:47:27;14.70;99.90
43671;DHT22;29267;50.906;7.248;2024-02-15T15:49:52;14.60;99.90